createdAt,value
2023-04-22T00:01:09.031Z,14.15
2023-04-22T00:03:18.381Z,14.20
2023-04-22T00:05:23.675Z,14.21
2023-04-22T00:07:28.432Z,14.19
2023-04-22T00:09:33.458Z,14.21
2023-04-22T00:11:38.328Z,14.22
2023-04-22T00:13:43.313Z,14.21
2023-04-22T00:15:48.242Z,14.24
2023-04-22T00:17:53.196Z,14.27
2023-04-22T00:20:01.707Z,14.28
2023-04-22T00:22:07.001Z,14.28
2023-04-22T00:24:11.648Z,14.23
2023-04-22T00:26:16.529Z,14.20
2023-04-22T00:28:21.430Z,14.17
2023-04-22T00:30:26.469Z,14.15
2023-04-22T00:32:31.449Z,14.17
2023-04-22T00:34:36.422Z,14.18
2023-04-22T00:36:43.951Z,14.19
2023-04-22T00:38:52.473Z,14.17
2023-04-22T00:40:57.376Z,14.18
2023-04-22T00:43:02.964Z,14.17
2023-04-22T00:45:13.025Z,14.18
2023-04-22T00:47:18.847Z,14.17
2023-04-22T00:49:24.041Z,14.17
2023-04-22T00:51:28.853Z,14.09
2023-04-22T00:53:36.360Z,14.04
2023-04-22T00:55:41.581Z,14.04
2023-04-22T00:57:46.270Z,14.00
2023-04-22T00:59:51.535Z,14.00
2023-04-22T01:01:57.138Z,13.99
2023-04-22T01:04:02.162Z,14.02
2023-04-22T01:06:07.018Z,13.99
2023-04-22T01:08:11.966Z,13.99
2023-04-22T01:10:20.465Z,14.01
2023-04-22T01:12:25.344Z,13.97
2023-04-22T01:14:30.534Z,13.96
2023-04-22T01:16:39.192Z,13.94
2023-04-22T01:18:44.168Z,13.94
2023-04-22T01:20:49.208Z,13.96
2023-04-22T01:22:58.118Z,13.96
2023-04-22T01:25:07.087Z,13.97
2023-04-22T01:27:12.642Z,13.98
2023-04-22T01:29:18.461Z,13.98
2023-04-22T01:31:23.538Z,13.99
2023-04-22T01:33:28.575Z,14.02
2023-04-22T01:35:37.279Z,13.98
2023-04-22T01:37:42.897Z,13.99
2023-04-22T01:39:48.649Z,13.94
2023-04-22T01:41:56.843Z,13.95
2023-04-22T01:44:06.127Z,13.94
2023-04-22T01:46:12.959Z,13.93
2023-04-22T01:48:18.124Z,13.95
2023-04-22T01:50:24.327Z,13.93
2023-04-22T01:52:30.186Z,13.94
2023-04-22T01:54:35.352Z,13.93
2023-04-22T01:56:40.747Z,13.85
2023-04-22T01:58:49.701Z,13.77
2023-04-22T02:00:54.612Z,13.73
2023-04-22T02:02:59.831Z,13.67
2023-04-22T02:05:05.027Z,13.64
2023-04-22T02:07:09.803Z,13.59
2023-04-22T02:09:16.104Z,13.51
2023-04-22T02:11:21.618Z,13.46
2023-04-22T02:13:26.571Z,13.43
2023-04-22T02:15:34.163Z,13.41
2023-04-22T02:17:39.478Z,13.39
2023-04-22T02:19:44.449Z,13.35
2023-04-22T02:21:49.388Z,13.39
2023-04-22T02:23:54.361Z,13.41
2023-04-22T02:25:59.275Z,13.44
2023-04-22T02:28:04.230Z,13.44
2023-04-22T02:30:11.425Z,13.44
2023-04-22T02:32:19.715Z,13.44
2023-04-22T02:34:24.634Z,13.41
2023-04-22T02:36:32.126Z,13.42
2023-04-22T02:38:38.819Z,13.43
2023-04-22T02:40:48.623Z,13.44
2023-04-22T02:42:54.456Z,13.45
2023-04-22T02:45:00.239Z,13.45
2023-04-22T02:47:05.471Z,13.46
2023-04-22T02:49:14.521Z,13.49
2023-04-22T02:51:19.495Z,13.50
2023-04-22T02:53:24.367Z,13.48
2023-04-22T02:55:29.460Z,13.45
2023-04-22T02:57:34.374Z,13.43
2023-04-22T02:59:40.469Z,13.36
2023-04-22T03:01:46.417Z,13.32
2023-04-22T03:04:02.987Z,13.28
2023-04-22T03:06:10.860Z,13.32
2023-04-22T03:08:15.821Z,13.33
2023-04-22T03:10:20.829Z,13.25
2023-04-22T03:12:25.909Z,13.16
2023-04-22T03:14:30.913Z,13.14
2023-04-22T03:16:36.370Z,13.11
2023-04-22T03:18:43.606Z,13.12
2023-04-22T03:20:49.249Z,13.11
2023-04-22T03:22:58.523Z,13.10
2023-04-22T03:25:04.585Z,13.07
2023-04-22T03:27:11.317Z,13.07
2023-04-22T03:29:17.695Z,13.05
2023-04-22T03:31:24.615Z,13.03
2023-04-22T03:33:29.722Z,13.01
2023-04-22T03:35:41.439Z,12.98
2023-04-22T03:37:46.442Z,12.95
2023-04-22T03:39:58.974Z,12.90
2023-04-22T03:42:06.124Z,12.85
2023-04-22T03:44:12.661Z,12.76
2023-04-22T03:46:19.307Z,12.69
2023-04-22T03:48:35.900Z,12.61
2023-04-22T03:50:46.226Z,12.55
2023-04-22T03:52:51.552Z,12.54
2023-04-22T03:55:01.675Z,12.54
2023-04-22T03:57:07.368Z,12.55
2023-04-22T03:59:12.303Z,12.51
2023-04-22T04:01:17.375Z,12.49
2023-04-22T04:03:30.452Z,12.45
2023-04-22T04:05:36.960Z,12.45
2023-04-22T04:07:42.785Z,12.46
2023-04-22T04:09:47.989Z,12.49
2023-04-22T04:11:56.892Z,12.50
2023-04-22T04:14:03.638Z,12.49
2023-04-22T04:16:24.399Z,12.49
2023-04-22T04:18:35.786Z,12.51
2023-04-22T04:20:40.889Z,12.51
2023-04-22T04:22:46.626Z,12.54
2023-04-22T04:24:52.646Z,12.56
2023-04-22T04:27:03.334Z,12.58
2023-04-22T04:29:15.372Z,12.60
2023-04-22T04:31:28.008Z,12.58
2023-04-22T04:33:37.156Z,12.60
2023-04-22T04:35:43.573Z,12.59
2023-04-22T04:37:51.609Z,12.60
2023-04-22T04:39:59.518Z,12.62
2023-04-22T04:42:17.950Z,12.64
2023-04-22T04:44:33.463Z,12.60
2023-04-22T04:46:43.124Z,12.60
2023-04-22T04:48:50.907Z,12.60
2023-04-22T04:50:59.173Z,12.59
2023-04-22T04:53:07.358Z,12.60
2023-04-22T04:55:16.717Z,12.60
2023-04-22T04:57:24.891Z,12.60
2023-04-22T04:59:30.110Z,12.60
2023-04-22T05:01:36.469Z,12.59
2023-04-22T05:03:46.308Z,12.61
2023-04-22T05:05:53.610Z,12.63
2023-04-22T05:07:58.735Z,12.65
2023-04-22T05:10:04.529Z,12.64
2023-04-22T05:12:11.248Z,12.65
2023-04-22T05:14:18.782Z,12.63
2023-04-22T05:16:25.192Z,12.65
2023-04-22T05:18:30.841Z,12.69
2023-04-22T05:20:41.541Z,12.72
2023-04-22T05:22:46.482Z,12.71
2023-04-22T05:24:52.812Z,12.73
2023-04-22T05:26:58.827Z,12.76
2023-04-22T05:29:03.589Z,12.76
2023-04-22T05:31:11.187Z,12.74
2023-04-22T05:33:16.299Z,12.77
2023-04-22T05:35:22.019Z,12.81
2023-04-22T05:37:26.947Z,12.83
2023-04-22T05:39:31.918Z,12.86
2023-04-22T05:41:43.736Z,12.89
2023-04-22T05:43:50.360Z,12.95
2023-04-22T05:45:57.797Z,13.00
2023-04-22T05:48:05.454Z,12.98
2023-04-22T05:50:15.913Z,12.99
2023-04-22T05:52:28.085Z,13.02
2023-04-22T05:54:44.718Z,13.07
2023-04-22T05:56:51.232Z,13.13
2023-04-22T05:58:56.150Z,13.21
2023-04-22T06:01:02.592Z,13.28
2023-04-22T06:03:28.887Z,13.29
2023-04-22T06:05:34.767Z,13.36
2023-04-22T06:07:39.513Z,13.44
2023-04-22T06:09:45.038Z,13.55
2023-04-22T06:11:50.063Z,13.65
2023-04-22T06:13:54.975Z,13.74
2023-04-22T06:16:00.073Z,13.79
2023-04-22T06:18:05.256Z,13.80
2023-04-22T06:20:13.709Z,13.87
2023-04-22T06:22:18.673Z,13.92
2023-04-22T06:24:25.477Z,13.95
2023-04-22T06:26:32.881Z,14.07
2023-04-22T06:28:38.103Z,14.12
2023-04-22T06:30:48.566Z,14.30
2023-04-22T06:32:55.370Z,14.51
2023-04-22T06:35:00.291Z,14.74
2023-04-22T06:37:07.875Z,14.86
2023-04-22T06:39:14.100Z,14.94
2023-04-22T06:41:44.457Z,14.88
2023-04-22T06:44:18.001Z,14.89
2023-04-22T06:46:48.892Z,14.95
2023-04-22T06:49:12.204Z,14.94
2023-04-22T06:51:35.552Z,14.94
2023-04-22T06:53:43.266Z,15.09
2023-04-22T06:55:53.736Z,15.23
2023-04-22T06:57:59.144Z,15.35
2023-04-22T07:00:04.769Z,15.53
2023-04-22T07:02:11.345Z,15.68
2023-04-22T07:04:17.757Z,15.81
2023-04-22T07:06:22.637Z,15.90
2023-04-22T07:08:27.646Z,16.02
2023-04-22T07:10:35.392Z,16.12
2023-04-22T07:12:58.854Z,16.23
2023-04-22T07:15:03.737Z,16.21
2023-04-22T07:17:08.700Z,16.33
2023-04-22T07:19:15.498Z,16.43
2023-04-22T07:21:20.847Z,16.50
2023-04-22T07:23:25.822Z,16.50
2023-04-22T07:25:30.845Z,16.55
2023-04-22T07:27:39.076Z,16.68
2023-04-22T07:29:44.025Z,16.73
2023-04-22T07:31:48.998Z,16.72
2023-04-22T07:33:53.871Z,16.74
2023-04-22T07:35:58.779Z,16.79
2023-04-22T07:38:03.969Z,16.82
2023-04-22T07:40:12.106Z,16.79
2023-04-22T07:42:17.076Z,16.84
2023-04-22T07:44:24.657Z,16.90
2023-04-22T07:46:29.600Z,16.94
2023-04-22T07:48:34.553Z,16.89
2023-04-22T07:50:39.416Z,16.91
2023-04-22T07:52:44.318Z,16.95
2023-04-22T07:54:49.265Z,17.00
2023-04-22T07:56:54.167Z,16.97
2023-04-22T07:58:59.060Z,17.05
2023-04-22T08:01:09.026Z,17.13
2023-04-22T08:03:14.461Z,17.20
2023-04-22T08:05:19.952Z,17.29
2023-04-22T08:09:32.824Z,17.32
2023-04-22T08:11:37.742Z,17.29
2023-04-22T08:13:45.119Z,17.31
2023-04-22T08:15:50.329Z,17.34
2023-04-22T08:17:57.864Z,17.40
2023-04-22T08:20:02.784Z,17.42
2023-04-22T08:22:07.868Z,17.50
2023-04-22T08:24:12.717Z,17.51
2023-04-22T08:26:17.804Z,17.60
2023-04-22T08:28:22.782Z,17.57
2023-04-22T08:30:27.741Z,17.64
2023-04-22T08:32:32.710Z,17.73
2023-04-22T08:34:40.826Z,17.82
2023-04-22T08:36:46.700Z,17.84
2023-04-22T08:38:51.426Z,17.90
2023-04-22T08:40:59.787Z,18.03
2023-04-22T08:43:05.128Z,18.14
2023-04-22T08:45:10.919Z,18.21
2023-04-22T08:47:17.194Z,18.34
2023-04-22T08:49:22.505Z,18.42
2023-04-22T08:51:32.144Z,18.59
2023-04-22T08:53:37.303Z,18.64
2023-04-22T08:55:42.902Z,18.64
2023-04-22T08:57:48.923Z,18.77
2023-04-22T08:59:55.722Z,18.97
2023-04-22T09:02:05.663Z,19.17
2023-04-22T09:04:13.605Z,19.39
2023-04-22T09:06:20.403Z,19.55
2023-04-22T09:08:29.226Z,19.63
2023-04-22T09:10:34.804Z,19.60
2023-04-22T09:12:41.704Z,19.64
2023-04-22T09:14:47.394Z,19.73
2023-04-22T09:16:53.056Z,19.75
2023-04-22T09:18:58.338Z,19.73
2023-04-22T09:21:03.450Z,19.78
2023-04-22T09:23:08.059Z,19.81
2023-04-22T09:25:21.768Z,19.95
2023-04-22T09:27:28.229Z,20.05
2023-04-22T09:29:33.788Z,20.12
2023-04-22T09:31:39.221Z,20.19
2023-04-22T09:33:44.686Z,20.15
2023-04-22T09:35:49.532Z,20.23
2023-04-22T09:37:55.146Z,20.29
2023-04-22T09:40:00.038Z,20.28
2023-04-22T09:42:07.724Z,20.35
2023-04-22T09:44:16.970Z,20.41
2023-04-22T09:46:21.954Z,20.51
2023-04-22T09:48:26.722Z,20.59
2023-04-22T09:50:42.917Z,20.73
2023-04-22T09:52:47.836Z,20.80
2023-04-22T09:54:53.745Z,20.84
2023-04-22T09:56:58.958Z,21.00
2023-04-22T09:59:09.154Z,21.14
2023-04-22T10:01:14.293Z,21.23
2023-04-22T10:03:19.291Z,21.15
2023-04-22T10:05:27.185Z,21.12
2023-04-22T10:07:32.752Z,21.21
2023-04-22T10:09:38.181Z,21.18
2023-04-22T10:11:43.610Z,21.33
2023-04-22T10:13:48.517Z,21.33
2023-04-22T10:15:58.410Z,21.34
2023-04-22T10:18:05.096Z,21.42
2023-04-22T10:20:16.541Z,21.54
2023-04-22T10:22:21.723Z,21.58
2023-04-22T10:24:30.036Z,21.60
2023-04-22T10:26:45.572Z,21.65
2023-04-22T10:28:50.212Z,21.63
2023-04-22T10:30:57.829Z,21.70
2023-04-22T10:33:47.316Z,21.75
2023-04-22T10:36:13.568Z,21.74
2023-04-22T10:38:19.288Z,21.75
2023-04-22T10:40:25.770Z,21.76
2023-04-22T10:42:31.870Z,21.79
2023-04-22T10:44:52.410Z,21.94
2023-04-22T10:47:03.792Z,22.02
2023-04-22T10:49:13.366Z,22.09
2023-04-22T10:51:43.780Z,22.12
2023-04-22T10:53:48.712Z,22.18
2023-04-22T10:55:56.469Z,22.17
2023-04-22T10:58:02.610Z,22.15
2023-04-22T11:00:35.386Z,22.20
2023-04-22T11:02:50.779Z,22.30
2023-04-22T11:05:23.948Z,22.37
2023-04-22T11:07:35.833Z,22.37
2023-04-22T11:09:42.913Z,22.41
2023-04-22T11:11:48.219Z,22.48
2023-04-22T11:13:53.412Z,22.42
2023-04-22T11:15:58.753Z,22.36
2023-04-22T11:18:07.523Z,22.38
2023-04-22T11:20:13.666Z,22.42
2023-04-22T11:22:21.334Z,22.46
2023-04-22T11:24:26.604Z,22.49
2023-04-22T11:26:38.489Z,22.56
2023-04-22T11:28:49.363Z,22.59
2023-04-22T11:30:54.714Z,22.62
2023-04-22T11:33:01.648Z,22.67
2023-04-22T11:35:11.415Z,22.70
2023-04-22T11:37:16.377Z,22.69
2023-04-22T11:39:22.821Z,22.77
2023-04-22T11:41:27.898Z,22.89
2023-04-22T11:43:32.898Z,22.94
2023-04-22T11:45:39.325Z,23.00
2023-04-22T11:47:46.259Z,23.02
2023-04-22T11:50:02.174Z,22.99
2023-04-22T11:52:09.806Z,23.01
2023-04-22T11:54:14.768Z,23.03
2023-04-22T11:56:19.635Z,23.04
2023-04-22T11:58:29.568Z,23.05
2023-04-22T12:00:37.298Z,22.92
2023-04-22T12:02:44.438Z,22.88
2023-04-22T12:04:49.501Z,22.87
2023-04-22T12:06:54.908Z,22.88
2023-04-22T12:09:02.721Z,22.99
2023-04-22T12:11:10.815Z,23.02
2023-04-22T12:13:22.690Z,23.11
2023-04-22T12:15:27.808Z,23.21
2023-04-22T12:17:34.763Z,23.21
2023-04-22T12:19:41.276Z,23.31
2023-04-22T12:21:46.496Z,23.51
2023-04-22T12:23:53.065Z,23.60
2023-04-22T12:26:00.636Z,23.75
2023-04-22T12:28:05.547Z,23.89
2023-04-22T12:30:11.496Z,23.87
2023-04-22T12:32:16.421Z,23.84
2023-04-22T12:34:24.107Z,23.89
2023-04-22T12:36:29.234Z,23.86
2023-04-22T12:38:34.206Z,23.88
2023-04-22T12:40:39.231Z,23.82
2023-04-22T12:42:46.781Z,23.83
2023-04-22T12:44:51.701Z,23.86
2023-04-22T12:46:56.338Z,23.78
2023-04-22T12:49:01.766Z,23.83
2023-04-22T12:51:07.169Z,23.88
2023-04-22T12:53:12.238Z,23.98
2023-04-22T12:55:18.170Z,23.99
2023-04-22T12:57:23.097Z,24.02
2023-04-22T12:59:32.449Z,24.03
2023-04-22T13:01:37.387Z,24.11
2023-04-22T13:03:42.160Z,24.07
2023-04-22T13:05:49.129Z,24.11
2023-04-22T13:08:05.682Z,24.08
2023-04-22T13:10:13.788Z,24.08
2023-04-22T13:12:18.680Z,24.14
2023-04-22T13:14:23.310Z,24.16
2023-04-22T13:16:31.063Z,24.29
2023-04-22T13:18:36.623Z,24.35
2023-04-22T13:20:43.000Z,24.35
2023-04-22T13:22:48.578Z,24.31
2023-04-22T13:24:53.574Z,24.22
2023-04-22T13:26:59.092Z,24.27
2023-04-22T13:29:04.002Z,24.37
2023-04-22T13:31:08.868Z,24.42
2023-04-22T13:33:16.957Z,24.51
2023-04-22T13:35:22.260Z,24.49
2023-04-22T13:37:27.153Z,24.53
2023-04-22T13:39:32.336Z,24.47
2023-04-22T13:41:37.296Z,24.56
2023-04-22T13:43:41.878Z,24.52
2023-04-22T13:45:48.491Z,24.63
2023-04-22T13:47:53.565Z,24.71
2023-04-22T13:50:02.145Z,24.76
2023-04-22T13:52:07.165Z,24.85
2023-04-22T13:54:11.852Z,24.91
2023-04-22T13:56:16.777Z,25.03
2023-04-22T13:58:21.423Z,24.98
2023-04-22T14:00:26.419Z,25.02
2023-04-22T14:02:31.112Z,24.96
2023-04-22T14:04:36.342Z,24.95
2023-04-22T14:06:44.003Z,25.00
2023-04-22T14:08:49.132Z,24.99
2023-04-22T14:10:54.070Z,25.02
2023-04-22T14:12:58.735Z,24.97
2023-04-22T14:15:03.689Z,25.05
2023-04-22T14:17:08.868Z,25.05
2023-04-22T14:19:14.719Z,25.15
2023-04-22T14:21:19.640Z,25.21
2023-04-22T14:23:26.967Z,25.14
2023-04-22T14:25:31.938Z,25.21
2023-04-22T14:27:36.499Z,25.23
2023-04-22T14:29:44.405Z,25.37
2023-04-22T14:31:50.003Z,25.50
2023-04-22T14:33:54.900Z,25.59
2023-04-22T14:35:59.552Z,25.59
2023-04-22T14:38:05.222Z,25.52
2023-04-22T14:40:14.016Z,25.51
2023-04-22T14:42:19.739Z,25.53
2023-04-22T14:44:24.813Z,25.45
2023-04-22T14:46:30.162Z,25.47
2023-04-22T14:48:35.759Z,25.45
2023-04-22T14:50:40.708Z,25.50
2023-04-22T14:52:48.091Z,25.63
2023-04-22T14:54:53.135Z,25.68
2023-04-22T14:57:00.604Z,25.82
2023-04-22T14:59:05.615Z,25.84
2023-04-22T15:01:10.476Z,25.84
2023-04-22T15:03:15.705Z,25.88
2023-04-22T15:05:22.415Z,25.89
2023-04-22T15:07:27.329Z,26.00
2023-04-22T15:09:31.991Z,26.00
2023-04-22T15:11:36.903Z,26.02
2023-04-22T15:13:44.150Z,26.00
2023-04-22T15:15:49.149Z,25.99
2023-04-22T15:17:54.324Z,26.01
2023-04-22T15:19:59.406Z,26.08
2023-04-22T15:22:04.340Z,26.16
2023-04-22T15:24:09.566Z,26.26
2023-04-22T15:26:15.362Z,26.34
2023-04-22T15:28:20.377Z,26.36
2023-04-22T15:30:28.124Z,26.10
2023-04-22T15:32:36.355Z,25.95
2023-04-22T15:34:43.627Z,25.88
2023-04-22T15:36:48.593Z,25.73
2023-04-22T15:38:56.179Z,25.36
2023-04-22T15:41:01.221Z,25.26
2023-04-22T15:43:06.293Z,25.21
2023-04-22T15:45:11.586Z,25.11
2023-04-22T15:47:19.289Z,25.00
2023-04-22T15:49:24.419Z,24.94
2023-04-22T15:51:29.484Z,24.83
2023-04-22T15:53:34.395Z,24.64
2023-04-22T15:55:42.331Z,24.52
2023-04-22T15:57:47.230Z,24.49
2023-04-22T16:00:02.917Z,24.34
2023-04-22T16:02:23.706Z,24.28
2023-04-22T16:04:29.007Z,24.29
2023-04-22T16:06:34.193Z,24.21
2023-04-22T16:08:39.464Z,24.09
2023-04-22T16:10:46.692Z,24.06
2023-04-22T16:12:52.138Z,24.10
2023-04-22T16:14:57.138Z,24.04
2023-04-22T16:17:02.910Z,23.93
2023-04-22T16:19:11.199Z,23.69
2023-04-22T16:21:16.148Z,23.66
2023-04-22T16:23:20.860Z,23.52
2023-04-22T16:25:25.849Z,23.46
2023-04-22T16:27:31.078Z,23.35
2023-04-22T16:29:36.022Z,23.34
2023-04-22T16:31:42.053Z,23.20
2023-04-22T16:33:47.075Z,23.20
2023-04-22T16:35:54.293Z,23.06
2023-04-22T16:37:59.149Z,22.97
2023-04-22T16:40:04.692Z,23.00
2023-04-22T16:42:09.860Z,22.84
2023-04-22T16:44:14.775Z,22.75
2023-04-22T16:46:19.523Z,22.53
2023-04-22T16:48:24.434Z,22.37
2023-04-22T16:50:29.370Z,22.35
2023-04-22T16:52:36.742Z,22.26
2023-04-22T16:54:42.943Z,22.29
2023-04-22T16:56:47.816Z,22.21
2023-04-22T16:58:52.514Z,22.21
2023-04-22T17:00:57.395Z,22.19
2023-04-22T17:03:02.489Z,22.20
2023-04-22T17:05:08.856Z,22.23
2023-04-22T17:07:13.748Z,22.19
2023-04-22T17:09:21.345Z,22.27
2023-04-22T17:11:26.822Z,22.33
2023-04-22T17:13:31.752Z,22.41
2023-04-22T17:15:36.695Z,22.44
2023-04-22T17:17:42.890Z,22.46
2023-04-22T17:19:47.804Z,22.46
2023-04-22T17:21:52.752Z,22.46
2023-04-22T17:23:58.828Z,22.47
2023-04-22T17:26:06.421Z,22.47
2023-04-22T17:28:11.738Z,22.48
2023-04-22T17:30:17.299Z,22.49
2023-04-22T17:32:22.178Z,22.47
2023-04-22T17:34:27.121Z,22.46
2023-04-22T17:36:32.090Z,22.48
2023-04-22T17:38:36.987Z,22.48
2023-04-22T17:40:43.860Z,22.44
2023-04-22T17:42:51.632Z,22.43
2023-04-22T17:44:56.525Z,22.41
2023-04-22T17:47:01.635Z,22.41
2023-04-22T17:49:06.731Z,22.37
2023-04-22T17:51:12.021Z,22.31
2023-04-22T17:53:16.919Z,22.30
2023-04-22T17:55:22.125Z,22.33
2023-04-22T17:57:28.487Z,22.32
2023-04-22T17:59:35.982Z,22.32
2023-04-22T18:01:44.088Z,22.29
2023-04-22T18:03:49.215Z,22.27
2023-04-22T18:05:54.229Z,22.26
2023-04-22T18:08:02.651Z,22.25
2023-04-22T18:10:09.213Z,22.24
2023-04-22T18:12:17.240Z,22.20
2023-04-22T18:14:22.902Z,22.12
2023-04-22T18:16:30.478Z,22.10
2023-04-22T18:18:35.598Z,22.08
2023-04-22T18:20:40.859Z,22.09
2023-04-22T18:22:45.962Z,22.07
2023-04-22T18:24:51.041Z,22.03
2023-04-22T18:26:56.659Z,21.95
2023-04-22T18:29:01.571Z,21.86
2023-04-22T18:31:07.000Z,21.80
2023-04-22T18:33:14.521Z,21.75
2023-04-22T18:35:20.264Z,21.64
2023-04-22T18:37:29.740Z,21.60
2023-04-22T18:39:34.743Z,21.53
2023-04-22T18:41:40.520Z,21.45
2023-04-22T18:43:47.318Z,21.43
2023-04-22T18:45:52.321Z,21.41
2023-04-22T18:47:59.056Z,21.37
2023-04-22T18:50:07.201Z,21.35
2023-04-22T18:52:12.128Z,21.30
2023-04-22T18:54:17.064Z,21.23
2023-04-22T18:56:21.995Z,21.22
2023-04-22T18:58:27.402Z,21.21
2023-04-22T19:00:32.378Z,21.21
2023-04-22T19:02:39.921Z,21.20
2023-04-22T19:04:46.637Z,21.17
2023-04-22T19:06:53.908Z,21.11
2023-04-22T19:08:58.828Z,21.08
2023-04-22T19:11:03.875Z,21.02
2023-04-22T19:13:15.816Z,20.99
2023-04-22T19:15:27.670Z,21.00
2023-04-22T19:17:33.798Z,21.00
2023-04-22T19:19:38.915Z,20.99
2023-04-22T19:21:45.388Z,21.01
2023-04-22T19:23:53.366Z,21.01
2023-04-22T19:25:58.253Z,20.99
2023-04-22T19:28:05.722Z,20.98
2023-04-22T19:30:12.104Z,20.93
2023-04-22T19:32:17.173Z,20.85
2023-04-22T19:34:21.886Z,20.49
2023-04-22T19:36:27.152Z,20.20
2023-04-22T19:38:32.109Z,20.12
2023-04-22T19:40:39.785Z,20.14
2023-04-22T19:42:47.494Z,20.20
2023-04-22T19:44:52.615Z,20.25
2023-04-22T19:46:57.398Z,20.23
2023-04-22T19:49:03.036Z,20.28
2023-04-22T19:51:11.320Z,20.33
2023-04-22T19:53:17.109Z,20.34
2023-04-22T19:55:23.566Z,20.36
2023-04-22T19:57:31.618Z,20.30
2023-04-22T19:59:37.116Z,20.27
2023-04-22T20:01:42.747Z,20.07
2023-04-22T20:03:48.656Z,19.91
2023-04-22T20:05:54.373Z,19.85
2023-04-22T20:08:02.031Z,19.84
2023-04-22T20:10:10.010Z,19.88
2023-04-22T20:12:16.019Z,19.91
2023-04-22T20:14:24.515Z,19.93
2023-04-22T20:16:32.665Z,19.83
2023-04-22T20:18:38.038Z,19.86
2023-04-22T20:20:45.071Z,19.90
2023-04-22T20:22:51.566Z,19.94
2023-04-22T20:25:07.820Z,19.93
2023-04-22T20:27:12.980Z,19.90
2023-04-22T20:29:17.868Z,19.84
2023-04-22T20:31:25.685Z,19.84
2023-04-22T20:33:30.892Z,19.77
2023-04-22T20:35:36.119Z,19.68
2023-04-22T20:37:42.646Z,19.65
2023-04-22T20:39:49.093Z,19.66
2023-04-22T20:41:57.623Z,19.71
2023-04-22T20:44:02.683Z,19.73
2023-04-22T20:46:08.137Z,19.76
2023-04-22T20:48:15.840Z,19.76
2023-04-22T20:50:21.004Z,19.77
2023-04-22T20:52:25.627Z,19.74
2023-04-22T20:54:30.546Z,19.76
2023-04-22T20:56:35.493Z,19.78
2023-04-22T20:58:40.657Z,19.80
2023-04-22T21:00:45.470Z,19.75
2023-04-22T21:02:50.962Z,19.75
2023-04-22T21:04:59.916Z,19.70
2023-04-22T21:07:07.404Z,19.64
2023-04-22T21:09:12.404Z,19.64
2023-04-22T21:11:17.942Z,19.61
2023-04-22T21:13:23.327Z,19.62
2023-04-22T21:15:29.802Z,19.62
2023-04-22T21:17:35.308Z,19.62
2023-04-22T21:19:41.636Z,19.62
2023-04-22T21:21:50.174Z,19.60
2023-04-22T21:23:56.893Z,19.60
2023-04-22T21:26:04.005Z,19.59
2023-04-22T21:28:09.752Z,19.61
2023-04-22T21:30:16.491Z,19.57
2023-04-22T21:32:21.887Z,19.53
2023-04-22T21:34:26.920Z,19.52
2023-04-22T21:36:32.073Z,19.50
2023-04-22T21:38:39.728Z,19.27
2023-04-22T21:40:47.696Z,18.90
2023-04-22T21:42:52.786Z,18.64
2023-04-22T21:44:57.394Z,18.49
2023-04-22T21:47:02.312Z,18.40
2023-04-22T21:49:08.301Z,18.29
2023-04-22T21:51:13.277Z,18.32
2023-04-22T21:53:19.675Z,18.19
2023-04-22T21:55:27.309Z,18.17
2023-04-22T21:57:32.472Z,18.14
2023-04-22T21:59:37.108Z,18.02
2023-04-22T22:01:42.462Z,18.09
2023-04-22T22:03:48.280Z,18.09
2023-04-22T22:05:53.405Z,18.12
2023-04-22T22:07:58.325Z,18.13
2023-04-22T22:10:03.690Z,18.14
2023-04-22T22:12:12.327Z,18.06
2023-04-22T22:14:17.652Z,18.06
2023-04-22T22:16:23.387Z,18.07
2023-04-22T22:18:28.410Z,18.00
2023-04-22T22:20:33.357Z,17.80
2023-04-22T22:22:38.383Z,17.63
2023-04-22T22:24:43.595Z,17.46
2023-04-22T22:26:48.948Z,17.30
2023-04-22T22:28:56.374Z,17.11
2023-04-22T22:31:02.671Z,16.95
2023-04-22T22:33:09.348Z,16.87
2023-04-22T22:35:14.448Z,16.81
2023-04-22T22:37:19.454Z,16.82
2023-04-22T22:39:24.418Z,16.89
2023-04-22T22:41:29.302Z,17.06
2023-04-22T22:43:34.184Z,17.18
2023-04-22T22:45:44.063Z,17.16
2023-04-22T22:47:49.089Z,17.15
2023-04-22T22:49:54.071Z,17.08
2023-04-22T22:51:58.952Z,17.07
2023-04-22T22:54:04.071Z,17.20
2023-04-22T22:56:09.525Z,17.27
2023-04-22T22:58:14.483Z,17.31
2023-04-22T23:00:19.959Z,17.40
2023-04-22T23:02:27.612Z,17.45
2023-04-22T23:04:33.318Z,17.48
2023-04-22T23:06:38.276Z,17.48
2023-04-22T23:08:43.195Z,17.47
2023-04-22T23:10:48.163Z,17.46
2023-04-22T23:12:53.076Z,17.39
2023-04-22T23:14:57.999Z,17.42
2023-04-22T23:17:03.075Z,17.45
2023-04-22T23:19:10.590Z,17.48
2023-04-22T23:21:16.263Z,17.51
2023-04-22T23:23:22.094Z,17.55
2023-04-22T23:25:27.652Z,17.57
2023-04-22T23:27:33.342Z,17.61
2023-04-22T23:29:39.530Z,17.51
2023-04-22T23:31:45.036Z,17.52
2023-04-22T23:33:52.499Z,17.37
2023-04-22T23:36:02.640Z,17.31
2023-04-22T23:38:10.743Z,17.27
2023-04-22T23:40:16.392Z,17.32
2023-04-22T23:42:21.300Z,17.37
2023-04-22T23:44:26.250Z,17.35
2023-04-22T23:46:31.346Z,17.35
2023-04-22T23:48:36.303Z,17.31
2023-04-22T23:50:41.673Z,17.29
2023-04-22T23:52:49.183Z,17.33
2023-04-22T23:54:55.330Z,17.33
2023-04-22T23:57:01.344Z,17.31
2023-04-22T23:59:07.537Z,17.28
